Victor, West Virginia
Current Conditions -  °F | °C
As of 6:51 AM on Saturday 20 Dec 2014 (Local Time) from KBKW Reporting Station
Overcast Overcast  
Wind Chill: 27°   Ceiling: 6000
Heat Index: 27°   Visibility: 10mi
Dew Point: 22°   Wind: 3mph
Humidity: 81%   Direction: 330°NNW
Pressure: 30.16"   Gusts: NA
Location:  38.13°N, 81.08°W
Report Text: KBKW 201151Z AUTO 33003KT 10SM BKN060 OVC100 M03/M06 A3016 RMK AO2 SLP252 T10281056 11028 21050 53007
Loading
Personal Weather Stations






























Interactive Weather Map New forecast layout! Learn more

10-Day Weather Forecast

Advertisements
Track Severe Weather on mobile